sensor_id;sensor_type;location;lat;lon;timestamp;pressure;altitude;pressure_sealevel;temperature;humidity
76424;BME280;65257;52.104;4.268;2023-04-25T00:00:27;101138.31;;;7.17;100.00
76424;BME280;65257;52.104;4.268;2023-04-25T00:02:53;101145.16;;;7.18;100.00
76424;BME280;65257;52.104;4.268;2023-04-25T00:05:18;101150.25;;;7.18;100.00
76424;BME280;65257;52.104;4.268;2023-04-25T00:07:45;101150.25;;;7.18;100.00
76424;BME280;65257;52.104;4.268;2023-04-25T00:10:11;101148.84;;;7.23;100.00
76424;BME280;65257;52.104;4.268;2023-04-25T00:12:37;101153.59;;;7.17;100.00
76424;BME280;65257;52.104;4.268;2023-04-25T00:15:03;101159.78;;;7.22;100.00
76424;BME280;65257;52.104;4.268;2023-04-25T00:17:28;101159.00;;;7.23;100.00
76424;BME280;65257;52.104;4.268;2023-04-25T00:19:54;101167.75;;;7.28;100.00
76424;BME280;65257;52.104;4.268;2023-04-25T00:22:21;101157.41;;;7.25;100.00
76424;BME280;65257;52.104;4.268;2023-04-25T00:24:46;101155.81;;;7.27;100.00
76424;BME280;65257;52.104;4.268;2023-04-25T00:27:12;101164.56;;;7.32;100.00
76424;BME280;65257;52.104;4.268;2023-04-25T00:29:37;101162.03;;;7.32;100.00
76424;BME280;65257;52.104;4.268;2023-04-25T00:32:02;101157.38;;;7.39;100.00
76424;BME280;65257;52.104;4.268;2023-04-25T00:34:28;101163.66;;;7.46;100.00
76424;BME280;65257;52.104;4.268;2023-04-25T00:36:53;101154.72;;;7.38;100.00
76424;BME280;65257;52.104;4.268;2023-04-25T00:39:19;101157.19;;;7.36;100.00
76424;BME280;65257;52.104;4.268;2023-04-25T00:41:45;101150.28;;;7.34;100.00
76424;BME280;65257;52.104;4.268;2023-04-25T00:44:11;101169.53;;;7.29;100.00
76424;BME280;65257;52.104;4.268;2023-04-25T00:46:38;101165.03;;;7.25;100.00
76424;BME280;65257;52.104;4.268;2023-04-25T00:49:04;101161.78;;;7.27;100.00
76424;BME280;65257;52.104;4.268;2023-04-25T00:51:30;101166.97;;;7.29;100.00
76424;BME280;65257;52.104;4.268;2023-04-25T00:53:57;101170.00;;;7.38;100.00
76424;BME280;65257;52.104;4.268;2023-04-25T00:56:22;101173.03;;;7.31;100.00
76424;BME280;65257;52.104;4.268;2023-04-25T00:58:48;101170.81;;;7.37;100.00
76424;BME280;65257;52.104;4.268;2023-04-25T01:01:15;101170.53;;;7.32;100.00
76424;BME280;65257;52.104;4.268;2023-04-25T01:03:41;101175.16;;;7.23;100.00
76424;BME280;65257;52.104;4.268;2023-04-25T01:06:10;101182.69;;;7.22;100.00
76424;BME280;65257;52.104;4.268;2023-04-25T01:08:38;101175.69;;;7.18;100.00
76424;BME280;65257;52.104;4.268;2023-04-25T01:11:05;101171.72;;;7.23;100.00
76424;BME280;65257;52.104;4.268;2023-04-25T01:13:31;101171.09;;;7.27;100.00
76424;BME280;65257;52.104;4.268;2023-04-25T01:15:58;101169.97;;;7.22;100.00
76424;BME280;65257;52.104;4.268;2023-04-25T01:18:23;101174.63;;;7.29;100.00
76424;BME280;65257;52.104;4.268;2023-04-25T01:20:51;101171.09;;;7.27;100.00
76424;BME280;65257;52.104;4.268;2023-04-25T01:23:18;101174.28;;;7.23;100.00
76424;BME280;65257;52.104;4.268;2023-04-25T01:25:43;101179.38;;;7.23;100.00
76424;BME280;65257;52.104;4.268;2023-04-25T01:28:11;101184.63;;;7.26;100.00
76424;BME280;65257;52.104;4.268;2023-04-25T01:30:37;101185.41;;;7.25;100.00
76424;BME280;65257;52.104;4.268;2023-04-25T01:33:03;101188.13;;;7.28;100.00
76424;BME280;65257;52.104;4.268;2023-04-25T01:35:30;101186.34;;;7.27;100.00
76424;BME280;65257;52.104;4.268;2023-04-25T01:37:56;101186.53;;;7.30;100.00
76424;BME280;65257;52.104;4.268;2023-04-25T01:40:22;101188.34;;;7.32;100.00
76424;BME280;65257;52.104;4.268;2023-04-25T01:42:49;101190.34;;;7.38;100.00
76424;BME280;65257;52.104;4.268;2023-04-25T01:45:15;101195.44;;;7.38;100.00
76424;BME280;65257;52.104;4.268;2023-04-25T01:47:40;101195.78;;;7.44;100.00
76424;BME280;65257;52.104;4.268;2023-04-25T01:50:08;101195.94;;;7.47;100.00
76424;BME280;65257;52.104;4.268;2023-04-25T01:52:34;101197.38;;;7.42;100.00
76424;BME280;65257;52.104;4.268;2023-04-25T01:55:00;101184.34;;;7.52;100.00
76424;BME280;65257;52.104;4.268;2023-04-25T01:57:26;101202.56;;;7.60;100.00
76424;BME280;65257;52.104;4.268;2023-04-25T01:59:55;101199.03;;;7.57;100.00
76424;BME280;65257;52.104;4.268;2023-04-25T02:02:23;101189.72;;;7.58;100.00
76424;BME280;65257;52.104;4.268;2023-04-25T02:04:48;101204.84;;;7.55;100.00
76424;BME280;65257;52.104;4.268;2023-04-25T02:07:14;101208.50;;;7.60;100.00
76424;BME280;65257;52.104;4.268;2023-04-25T02:09:40;101196.41;;;7.56;100.00
76424;BME280;65257;52.104;4.268;2023-04-25T02:12:09;101202.94;;;7.51;100.00
76424;BME280;65257;52.104;4.268;2023-04-25T02:14:35;101206.13;;;7.47;100.00
76424;BME280;65257;52.104;4.268;2023-04-25T02:17:00;101201.88;;;7.47;100.00
76424;BME280;65257;52.104;4.268;2023-04-25T02:19:26;101194.84;;;7.42;100.00
76424;BME280;65257;52.104;4.268;2023-04-25T02:21:53;101205.25;;;7.46;100.00
76424;BME280;65257;52.104;4.268;2023-04-25T02:24:18;101203.72;;;7.50;100.00
76424;BME280;65257;52.104;4.268;2023-04-25T02:26:44;101211.69;;;7.56;100.00
76424;BME280;65257;52.104;4.268;2023-04-25T02:29:09;101201.34;;;7.53;100.00
76424;BME280;65257;52.104;4.268;2023-04-25T02:31:35;101205.16;;;7.45;100.00
76424;BME280;65257;52.104;4.268;2023-04-25T02:34:01;101203.41;;;7.44;100.00
76424;BME280;65257;52.104;4.268;2023-04-25T02:36:26;101204.19;;;7.43;100.00
76424;BME280;65257;52.104;4.268;2023-04-25T02:38:52;101208.59;;;7.45;100.00
76424;BME280;65257;52.104;4.268;2023-04-25T02:41:19;101206.97;;;7.47;100.00
76424;BME280;65257;52.104;4.268;2023-04-25T02:43:45;101211.38;;;7.50;100.00
76424;BME280;65257;52.104;4.268;2023-04-25T02:46:12;101207.41;;;7.39;100.00
76424;BME280;65257;52.104;4.268;2023-04-25T02:48:37;101205.72;;;7.39;100.00
76424;BME280;65257;52.104;4.268;2023-04-25T02:51:03;101216.22;;;7.45;100.00
76424;BME280;65257;52.104;4.268;2023-04-25T02:53:28;101208.09;;;7.36;100.00
76424;BME280;65257;52.104;4.268;2023-04-25T02:55:54;101211.44;;;7.35;100.00
76424;BME280;65257;52.104;4.268;2023-04-25T02:58:19;101204.75;;;7.37;100.00
76424;BME280;65257;52.104;4.268;2023-04-25T03:00:45;101200.38;;;7.35;100.00
76424;BME280;65257;52.104;4.268;2023-04-25T03:03:11;101212.16;;;7.33;100.00
76424;BME280;65257;52.104;4.268;2023-04-25T03:05:36;101207.94;;;7.33;100.00
76424;BME280;65257;52.104;4.268;2023-04-25T03:08:02;101210.38;;;7.32;100.00
76424;BME280;65257;52.104;4.268;2023-04-25T03:10:28;101212.47;;;7.39;100.00
76424;BME280;65257;52.104;4.268;2023-04-25T03:12:53;101210.25;;;7.29;100.00
76424;BME280;65257;52.104;4.268;2023-04-25T03:15:18;101205.28;;;7.32;100.00
76424;BME280;65257;52.104;4.268;2023-04-25T03:17:45;101213.75;;;7.31;100.00
76424;BME280;65257;52.104;4.268;2023-04-25T03:20:10;101226.94;;;7.24;100.00
76424;BME280;65257;52.104;4.268;2023-04-25T03:22:37;101223.25;;;7.19;100.00
76424;BME280;65257;52.104;4.268;2023-04-25T03:25:02;101223.09;;;7.16;100.00
76424;BME280;65257;52.104;4.268;2023-04-25T03:27:28;101221.66;;;7.21;100.00
76424;BME280;65257;52.104;4.268;2023-04-25T03:29:53;101219.38;;;7.25;100.00
76424;BME280;65257;52.104;4.268;2023-04-25T03:32:18;101224.81;;;7.31;100.00
76424;BME280;65257;52.104;4.268;2023-04-25T03:34:44;101218.47;;;7.25;100.00
76424;BME280;65257;52.104;4.268;2023-04-25T03:37:10;101216.59;;;7.21;100.00
76424;BME280;65257;52.104;4.268;2023-04-25T03:39:36;101222.88;;;7.27;100.00
76424;BME280;65257;52.104;4.268;2023-04-25T03:42:03;101222.78;;;7.26;100.00
76424;BME280;65257;52.104;4.268;2023-04-25T03:44:29;101224.53;;;7.27;100.00
76424;BME280;65257;52.104;4.268;2023-04-25T03:46:54;101223.56;;;7.25;100.00
76424;BME280;65257;52.104;4.268;2023-04-25T03:49:21;101226.22;;;7.26;100.00
76424;BME280;65257;52.104;4.268;2023-04-25T03:51:47;101235.34;;;7.23;100.00
76424;BME280;65257;52.104;4.268;2023-04-25T03:54:13;101238.34;;;7.16;100.00
76424;BME280;65257;52.104;4.268;2023-04-25T03:56:38;101234.28;;;7.19;100.00
76424;BME280;65257;52.104;4.268;2023-04-25T03:59:06;101235.34;;;7.23;100.00
76424;BME280;65257;52.104;4.268;2023-04-25T04:01:34;101231.91;;;7.22;100.00
76424;BME280;65257;52.104;4.268;2023-04-25T04:03:59;101234.28;;;7.19;100.00
76424;BME280;65257;52.104;4.268;2023-04-25T04:06:25;101235.72;;;7.14;100.00
76424;BME280;65257;52.104;4.268;2023-04-25T04:08:51;101237.53;;;7.17;100.00
76424;BME280;65257;52.104;4.268;2023-04-25T04:11:17;101239.78;;;7.11;100.00
76424;BME280;65257;52.104;4.268;2023-04-25T04:13:43;101244.59;;;7.06;100.00
76424;BME280;65257;52.104;4.268;2023-04-25T04:16:08;101241.69;;;7.15;100.00
76424;BME280;65257;52.104;4.268;2023-04-25T04:18:34;101254.22;;;7.12;100.00
76424;BME280;65257;52.104;4.268;2023-04-25T04:21:02;101255.75;;;7.08;100.00
76424;BME280;65257;52.104;4.268;2023-04-25T04:23:28;101259.78;;;7.05;100.00
76424;BME280;65257;52.104;4.268;2023-04-25T04:25:55;101256.00;;;7.13;100.00
76424;BME280;65257;52.104;4.268;2023-04-25T04:28:25;101259.41;;;7.13;100.00
76424;BME280;65257;52.104;4.268;2023-04-25T04:30:51;101249.94;;;7.11;100.00
76424;BME280;65257;52.104;4.268;2023-04-25T04:33:17;101260.03;;;7.09;100.00
76424;BME280;65257;52.104;4.268;2023-04-25T04:35:48;101256.63;;;7.09;100.00
76424;BME280;65257;52.104;4.268;2023-04-25T04:38:16;101260.91;;;7.10;100.00
76424;BME280;65257;52.104;4.268;2023-04-25T04:40:43;101262.50;;;7.08;100.00
76424;BME280;65257;52.104;4.268;2023-04-25T04:43:11;101274.09;;;7.03;100.00
76424;BME280;65257;52.104;4.268;2023-04-25T04:45:37;101272.41;;;7.03;100.00
76424;BME280;65257;52.104;4.268;2023-04-25T04:48:07;101274.88;;;7.02;100.00
76424;BME280;65257;52.104;4.268;2023-04-25T04:50:33;101277.50;;;7.03;100.00
76424;BME280;65257;52.104;4.268;2023-04-25T04:52:59;101285.56;;;6.96;100.00
76424;BME280;65257;52.104;4.268;2023-04-25T04:55:25;101281.38;;;6.97;100.00
76424;BME280;65257;52.104;4.268;2023-04-25T04:57:50;101285.59;;;6.81;100.00
76424;BME280;65257;52.104;4.268;2023-04-25T05:00:16;101308.81;;;6.58;100.00
76424;BME280;65257;52.104;4.268;2023-04-25T05:02:41;101295.59;;;6.49;100.00
76424;BME280;65257;52.104;4.268;2023-04-25T05:05:07;101307.84;;;6.42;100.00
76424;BME280;65257;52.104;4.268;2023-04-25T05:07:33;101308.16;;;6.33;100.00
76424;BME280;65257;52.104;4.268;2023-04-25T05:09:59;101316.03;;;6.23;100.00
76424;BME280;65257;52.104;4.268;2023-04-25T05:12:26;101310.06;;;6.22;100.00
76424;BME280;65257;52.104;4.268;2023-04-25T05:14:51;101327.97;;;6.39;100.00
76424;BME280;65257;52.104;4.268;2023-04-25T05:17:16;101325.72;;;6.43;100.00
76424;BME280;65257;52.104;4.268;2023-04-25T05:19:42;101332.56;;;6.44;100.00
76424;BME280;65257;52.104;4.268;2023-04-25T05:22:08;101335.81;;;6.56;100.00
76424;BME280;65257;52.104;4.268;2023-04-25T05:24:34;101343.97;;;6.65;100.00
76424;BME280;65257;52.104;4.268;2023-04-25T05:27:00;101347.66;;;6.70;100.00
76424;BME280;65257;52.104;4.268;2023-04-25T05:29:25;101350.81;;;6.81;100.00
76424;BME280;65257;52.104;4.268;2023-04-25T05:31:51;101344.63;;;6.90;100.00
76424;BME280;65257;52.104;4.268;2023-04-25T05:34:16;101360.47;;;6.86;100.00
76424;BME280;65257;52.104;4.268;2023-04-25T05:36:42;101360.53;;;6.73;100.00
76424;BME280;65257;52.104;4.268;2023-04-25T05:39:07;101367.13;;;6.70;100.00
76424;BME280;65257;52.104;4.268;2023-04-25T05:41:34;101366.59;;;6.75;100.00
76424;BME280;65257;52.104;4.268;2023-04-25T05:43:59;101360.91;;;6.79;100.00
76424;BME280;65257;52.104;4.268;2023-04-25T05:46:25;101367.06;;;6.83;100.00
76424;BME280;65257;52.104;4.268;2023-04-25T05:48:50;101367.50;;;6.90;100.00
76424;BME280;65257;52.104;4.268;2023-04-25T05:51:16;101366.44;;;7.02;100.00
76424;BME280;65257;52.104;4.268;2023-04-25T05:53:43;101361.88;;;7.11;100.00
76424;BME280;65257;52.104;4.268;2023-04-25T05:56:09;101364.25;;;7.08;100.00
76424;BME280;65257;52.104;4.268;2023-04-25T05:58:34;101365.22;;;7.10;100.00
76424;BME280;65257;52.104;4.268;2023-04-25T06:01:01;101370.66;;;7.16;100.00
76424;BME280;65257;52.104;4.268;2023-04-25T06:03:27;101369.88;;;7.31;100.00
76424;BME280;65257;52.104;4.268;2023-04-25T06:05:53;101373.63;;;7.38;100.00
76424;BME280;65257;52.104;4.268;2023-04-25T06:08:18;101375.38;;;7.39;100.00
76424;BME280;65257;52.104;4.268;2023-04-25T06:10:44;101379.84;;;7.43;100.00
76424;BME280;65257;52.104;4.268;2023-04-25T06:13:10;101376.72;;;7.63;100.00
76424;BME280;65257;52.104;4.268;2023-04-25T06:15:35;101375.16;;;8.27;100.00
76424;BME280;65257;52.104;4.268;2023-04-25T06:18:01;101385.19;;;9.06;100.00
76424;BME280;65257;52.104;4.268;2023-04-25T06:20:26;101384.78;;;9.67;100.00
76424;BME280;65257;52.104;4.268;2023-04-25T06:22:53;101391.78;;;9.89;100.00
76424;BME280;65257;52.104;4.268;2023-04-25T06:25:19;101397.59;;;10.22;100.00
76424;BME280;65257;52.104;4.268;2023-04-25T06:27:45;101391.56;;;10.39;100.00
76424;BME280;65257;52.104;4.268;2023-04-25T06:30:11;101395.50;;;10.13;100.00
76424;BME280;65257;52.104;4.268;2023-04-25T06:32:37;101409.63;;;9.52;100.00
76424;BME280;65257;52.104;4.268;2023-04-25T06:35:03;101406.75;;;8.95;100.00
76424;BME280;65257;52.104;4.268;2023-04-25T06:37:30;101411.44;;;9.03;100.00
76424;BME280;65257;52.104;4.268;2023-04-25T06:39:56;101406.50;;;9.06;100.00
76424;BME280;65257;52.104;4.268;2023-04-25T06:42:22;101413.03;;;9.01;100.00
76424;BME280;65257;52.104;4.268;2023-04-25T06:44:47;101415.59;;;8.85;100.00
76424;BME280;65257;52.104;4.268;2023-04-25T06:47:13;101411.09;;;9.13;100.00
76424;BME280;65257;52.104;4.268;2023-04-25T06:49:38;101419.28;;;8.90;100.00
76424;BME280;65257;52.104;4.268;2023-04-25T06:52:05;101418.88;;;8.99;100.00
76424;BME280;65257;52.104;4.268;2023-04-25T06:54:35;101412.06;;;9.51;100.00
76424;BME280;65257;52.104;4.268;2023-04-25T06:57:03;101425.31;;;9.08;100.00
76424;BME280;65257;52.104;4.268;2023-04-25T06:59:28;101433.75;;;8.91;100.00
76424;BME280;65257;52.104;4.268;2023-04-25T07:01:54;101425.19;;;8.73;100.00
76424;BME280;65257;52.104;4.268;2023-04-25T07:04:21;101417.03;;;9.48;100.00
76424;BME280;65257;52.104;4.268;2023-04-25T07:06:48;101413.75;;;10.21;100.00
76424;BME280;65257;52.104;4.268;2023-04-25T07:09:15;101431.94;;;10.09;100.00
76424;BME280;65257;52.104;4.268;2023-04-25T07:11:40;101430.47;;;9.43;100.00
76424;BME280;65257;52.104;4.268;2023-04-25T07:14:07;101438.28;;;9.99;100.00
76424;BME280;65257;52.104;4.268;2023-04-25T07:16:34;101438.75;;;10.64;100.00
76424;BME280;65257;52.104;4.268;2023-04-25T07:18:59;101439.44;;;10.99;100.00
76424;BME280;65257;52.104;4.268;2023-04-25T07:21:25;101439.69;;;10.86;100.00
76424;BME280;65257;52.104;4.268;2023-04-25T07:23:50;101440.09;;;10.02;100.00
76424;BME280;65257;52.104;4.268;2023-04-25T07:26:16;101443.47;;;9.66;100.00
76424;BME280;65257;52.104;4.268;2023-04-25T07:28:42;101439.88;;;10.71;100.00
76424;BME280;65257;52.104;4.268;2023-04-25T07:31:08;101446.13;;;10.97;100.00
76424;BME280;65257;52.104;4.268;2023-04-25T07:33:35;101452.34;;;11.62;100.00
76424;BME280;65257;52.104;4.268;2023-04-25T07:36:01;101467.06;;;10.67;100.00
76424;BME280;65257;52.104;4.268;2023-04-25T07:38:26;101466.97;;;11.65;100.00
76424;BME280;65257;52.104;4.268;2023-04-25T07:40:52;101467.00;;;11.85;100.00
76424;BME280;65257;52.104;4.268;2023-04-25T07:43:17;101461.53;;;12.21;100.00
76424;BME280;65257;52.104;4.268;2023-04-25T07:45:45;101466.88;;;12.49;100.00
76424;BME280;65257;52.104;4.268;2023-04-25T07:48:15;101475.72;;;11.49;100.00
76424;BME280;65257;52.104;4.268;2023-04-25T07:50:41;101466.38;;;10.91;100.00
76424;BME280;65257;52.104;4.268;2023-04-25T07:53:08;101476.38;;;10.48;100.00
76424;BME280;65257;52.104;4.268;2023-04-25T07:55:36;101473.38;;;10.56;100.00
76424;BME280;65257;52.104;4.268;2023-04-25T07:58:06;101480.84;;;11.68;100.00
76424;BME280;65257;52.104;4.268;2023-04-25T08:00:37;101489.50;;;12.15;100.00
76424;BME280;65257;52.104;4.268;2023-04-25T08:03:03;101485.91;;;12.54;100.00
76424;BME280;65257;52.104;4.268;2023-04-25T08:05:29;101484.41;;;12.37;100.00
76424;BME280;65257;52.104;4.268;2023-04-25T08:07:54;101500.50;;;11.69;100.00
76424;BME280;65257;52.104;4.268;2023-04-25T08:10:22;101509.72;;;10.68;100.00
76424;BME280;65257;52.104;4.268;2023-04-25T08:12:48;101513.56;;;10.59;100.00
76424;BME280;65257;52.104;4.268;2023-04-25T08:15:13;101523.50;;;11.09;100.00
76424;BME280;65257;52.104;4.268;2023-04-25T08:17:39;101523.88;;;11.98;100.00
76424;BME280;65257;52.104;4.268;2023-04-25T08:20:05;101518.59;;;12.15;100.00
76424;BME280;65257;52.104;4.268;2023-04-25T08:22:31;101517.34;;;12.94;100.00
76424;BME280;65257;52.104;4.268;2023-04-25T08:24:56;101524.84;;;13.10;100.00
76424;BME280;65257;52.104;4.268;2023-04-25T08:27:22;101526.25;;;13.76;100.00
76424;BME280;65257;52.104;4.268;2023-04-25T08:29:49;101533.78;;;13.96;100.00
76424;BME280;65257;52.104;4.268;2023-04-25T08:32:15;101539.91;;;13.99;100.00
76424;BME280;65257;52.104;4.268;2023-04-25T08:34:40;101537.66;;;14.10;100.00
76424;BME280;65257;52.104;4.268;2023-04-25T08:37:08;101548.00;;;14.11;100.00
76424;BME280;65257;52.104;4.268;2023-04-25T08:39:35;101548.75;;;14.34;100.00
76424;BME280;65257;52.104;4.268;2023-04-25T08:42:02;101557.47;;;14.12;100.00
76424;BME280;65257;52.104;4.268;2023-04-25T08:44:33;101564.59;;;13.69;100.00
76424;BME280;65257;52.104;4.268;2023-04-25T08:46:59;101554.78;;;14.34;100.00
76424;BME280;65257;52.104;4.268;2023-04-25T08:49:25;101565.09;;;14.63;100.00
76424;BME280;65257;52.104;4.268;2023-04-25T08:51:52;101573.97;;;14.72;100.00
76424;BME280;65257;52.104;4.268;2023-04-25T08:54:20;101578.91;;;14.65;100.00
76424;BME280;65257;52.104;4.268;2023-04-25T08:56:49;101575.06;;;14.79;100.00
76424;BME280;65257;52.104;4.268;2023-04-25T08:59:14;101572.00;;;14.64;100.00
76424;BME280;65257;52.104;4.268;2023-04-25T09:01:40;101574.69;;;15.26;100.00
76424;BME280;65257;52.104;4.268;2023-04-25T09:04:06;101581.38;;;15.48;100.00
76424;BME280;65257;52.104;4.268;2023-04-25T09:06:32;101577.72;;;15.73;100.00
76424;BME280;65257;52.104;4.268;2023-04-25T09:09:02;101584.53;;;15.71;100.00
76424;BME280;65257;52.104;4.268;2023-04-25T09:11:29;101591.22;;;15.62;100.00
76424;BME280;65257;52.104;4.268;2023-04-25T09:14:20;101591.44;;;15.40;100.00
76424;BME280;65257;52.104;4.268;2023-04-25T09:19:26;101590.13;;;16.20;100.00
76424;BME280;65257;52.104;4.268;2023-04-25T09:21:56;101592.91;;;16.29;100.00
76424;BME280;65257;52.104;4.268;2023-04-25T09:27:06;101594.84;;;16.75;100.00
76424;BME280;65257;52.104;4.268;2023-04-25T09:29:34;101603.19;;;15.93;100.00
76424;BME280;65257;52.104;4.268;2023-04-25T09:32:22;101607.19;;;15.81;100.00
76424;BME280;65257;52.104;4.268;2023-04-25T09:34:57;101604.09;;;14.21;100.00
76424;BME280;65257;52.104;4.268;2023-04-25T09:37:27;101613.94;;;14.86;100.00
76424;BME280;65257;52.104;4.268;2023-04-25T09:40:05;101618.50;;;15.54;100.00
76424;BME280;65257;52.104;4.268;2023-04-25T09:42:33;101610.69;;;15.23;100.00
76424;BME280;65257;52.104;4.268;2023-04-25T09:45:01;101621.28;;;15.95;100.00
76424;BME280;65257;52.104;4.268;2023-04-25T09:47:27;101620.50;;;16.30;100.00
76424;BME280;65257;52.104;4.268;2023-04-25T09:49:57;101619.81;;;14.30;100.00
76424;BME280;65257;52.104;4.268;2023-04-25T09:52:28;101629.72;;;14.43;100.00
76424;BME280;65257;52.104;4.268;2023-04-25T09:54:53;101628.16;;;13.48;100.00
76424;BME280;65257;52.104;4.268;2023-04-25T09:57:19;101647.31;;;12.46;100.00
76424;BME280;65257;52.104;4.268;2023-04-25T09:59:49;101636.94;;;13.31;100.00
76424;BME280;65257;52.104;4.268;2023-04-25T10:02:30;101643.03;;;14.56;100.00
76424;BME280;65257;52.104;4.268;2023-04-25T10:04:58;101641.22;;;15.38;100.00
76424;BME280;65257;52.104;4.268;2023-04-25T10:07:29;101650.09;;;14.36;100.00
76424;BME280;65257;52.104;4.268;2023-04-25T10:10:00;101659.00;;;14.46;100.00
76424;BME280;65257;52.104;4.268;2023-04-25T10:12:29;101660.22;;;14.06;100.00
76424;BME280;65257;52.104;4.268;2023-04-25T10:14:57;101659.34;;;12.90;100.00
76424;BME280;65257;52.104;4.268;2023-04-25T10:17:23;101661.22;;;13.86;100.00
76424;BME280;65257;52.104;4.268;2023-04-25T10:19:48;101666.72;;;13.48;100.00
76424;BME280;65257;52.104;4.268;2023-04-25T10:22:18;101668.13;;;12.75;100.00
76424;BME280;65257;52.104;4.268;2023-04-25T10:24:46;101671.84;;;11.99;100.00
76424;BME280;65257;52.104;4.268;2023-04-25T10:27:12;101675.59;;;11.49;100.00
76424;BME280;65257;52.104;4.268;2023-04-25T10:29:37;101675.44;;;11.46;100.00
76424;BME280;65257;52.104;4.268;2023-04-25T10:32:03;101673.69;;;12.63;100.00
76424;BME280;65257;52.104;4.268;2023-04-25T10:34:39;101671.78;;;13.70;100.00
76424;BME280;65257;52.104;4.268;2023-04-25T10:37:08;101668.13;;;14.63;100.00
76424;BME280;65257;52.104;4.268;2023-04-25T10:39:41;101674.81;;;14.84;100.00
76424;BME280;65257;52.104;4.268;2023-04-25T10:42:07;101679.19;;;13.61;100.00
76424;BME280;65257;52.104;4.268;2023-04-25T10:44:37;101673.81;;;13.55;100.00
76424;BME280;65257;52.104;4.268;2023-04-25T10:47:07;101680.41;;;14.45;100.00
76424;BME280;65257;52.104;4.268;2023-04-25T10:49:43;101676.00;;;15.22;100.00
76424;BME280;65257;52.104;4.268;2023-04-25T10:54:50;101682.78;;;15.77;100.00
76424;BME280;65257;52.104;4.268;2023-04-25T10:57:52;101682.06;;;15.52;100.00
76424;BME280;65257;52.104;4.268;2023-04-25T11:00:20;101685.50;;;16.15;99.98
76424;BME280;65257;52.104;4.268;2023-04-25T11:03:08;101680.94;;;16.05;98.31
76424;BME280;65257;52.104;4.268;2023-04-25T11:05:35;101687.56;;;16.27;97.63
76424;BME280;65257;52.104;4.268;2023-04-25T11:08:02;101684.59;;;16.46;88.31
76424;BME280;65257;52.104;4.268;2023-04-25T11:10:29;101684.09;;;16.26;85.03
76424;BME280;65257;52.104;4.268;2023-04-25T11:12:56;101688.84;;;16.10;94.48
76424;BME280;65257;52.104;4.268;2023-04-25T11:15:22;101685.19;;;16.02;93.02
76424;BME280;65257;52.104;4.268;2023-04-25T11:17:47;101677.94;;;16.54;94.27
76424;BME280;65257;52.104;4.268;2023-04-25T11:20:13;101689.06;;;15.86;93.96
76424;BME280;65257;52.104;4.268;2023-04-25T11:22:41;101689.63;;;16.07;96.66
76424;BME280;65257;52.104;4.268;2023-04-25T11:25:07;101693.44;;;15.89;100.00
76424;BME280;65257;52.104;4.268;2023-04-25T11:27:33;101698.00;;;14.84;100.00
76424;BME280;65257;52.104;4.268;2023-04-25T11:29:58;101689.91;;;15.55;100.00
76424;BME280;65257;52.104;4.268;2023-04-25T11:32:24;101686.59;;;15.91;100.00
76424;BME280;65257;52.104;4.268;2023-04-25T11:34:49;101693.50;;;15.32;100.00
76424;BME280;65257;52.104;4.268;2023-04-25T11:37:15;101693.63;;;14.82;100.00
76424;BME280;65257;52.104;4.268;2023-04-25T11:39:46;101709.47;;;13.24;100.00
76424;BME280;65257;52.104;4.268;2023-04-25T11:42:12;101709.94;;;13.13;100.00
76424;BME280;65257;52.104;4.268;2023-04-25T11:44:39;101713.66;;;13.66;100.00
76424;BME280;65257;52.104;4.268;2023-04-25T11:47:06;101711.56;;;14.27;100.00
76424;BME280;65257;52.104;4.268;2023-04-25T11:49:32;101711.13;;;15.45;100.00
76424;BME280;65257;52.104;4.268;2023-04-25T11:51:58;101705.34;;;15.84;100.00
76424;BME280;65257;52.104;4.268;2023-04-25T11:54:23;101709.69;;;15.56;97.47
76424;BME280;65257;52.104;4.268;2023-04-25T11:56:48;101710.28;;;14.65;97.09
76424;BME280;65257;52.104;4.268;2023-04-25T11:59:17;101721.84;;;14.27;100.00
76424;BME280;65257;52.104;4.268;2023-04-25T12:01:49;101712.19;;;15.25;100.00
76424;BME280;65257;52.104;4.268;2023-04-25T12:04:20;101718.53;;;15.64;97.56
76424;BME280;65257;52.104;4.268;2023-04-25T12:06:48;101720.44;;;16.34;91.53
76424;BME280;65257;52.104;4.268;2023-04-25T12:09:16;101725.47;;;15.65;90.07
76424;BME280;65257;52.104;4.268;2023-04-25T12:11:44;101730.97;;;15.21;91.19
76424;BME280;65257;52.104;4.268;2023-04-25T12:14:10;101735.16;;;14.15;97.26
76424;BME280;65257;52.104;4.268;2023-04-25T12:16:46;101737.09;;;14.98;100.00
76424;BME280;65257;52.104;4.268;2023-04-25T12:19:19;101731.31;;;15.33;94.42
76424;BME280;65257;52.104;4.268;2023-04-25T12:21:45;101733.06;;;15.61;92.80
76424;BME280;65257;52.104;4.268;2023-04-25T12:29:38;101735.22;;;15.76;85.07
76424;BME280;65257;52.104;4.268;2023-04-25T12:32:04;101746.22;;;15.15;89.10
76424;BME280;65257;52.104;4.268;2023-04-25T12:34:29;101739.25;;;15.11;91.06
76424;BME280;65257;52.104;4.268;2023-04-25T12:36:57;101738.84;;;15.26;94.62
76424;BME280;65257;52.104;4.268;2023-04-25T12:39:24;101745.13;;;14.30;100.00
76424;BME280;65257;52.104;4.268;2023-04-25T12:41:53;101747.09;;;14.13;100.00
76424;BME280;65257;52.104;4.268;2023-04-25T12:44:21;101753.28;;;14.18;100.00
76424;BME280;65257;52.104;4.268;2023-04-25T12:46:47;101761.53;;;14.32;100.00
76424;BME280;65257;52.104;4.268;2023-04-25T12:49:13;101761.00;;;14.18;100.00
76424;BME280;65257;52.104;4.268;2023-04-25T12:51:39;101758.97;;;14.10;100.00
76424;BME280;65257;52.104;4.268;2023-04-25T12:54:06;101758.81;;;13.81;100.00
76424;BME280;65257;52.104;4.268;2023-04-25T12:56:34;101750.72;;;13.49;100.00